createdAt,value
2019-01-27T00:01:23.858Z,-2.44
2019-01-27T00:03:53.368Z,-2.41
2019-01-27T00:06:22.872Z,-2.39
2019-01-27T00:08:52.553Z,-2.35
2019-01-27T00:11:22.075Z,-2.33
2019-01-27T00:13:51.630Z,-2.26
2019-01-27T00:16:21.166Z,-2.25
2019-01-27T00:18:50.640Z,-2.23
2019-01-27T00:21:20.162Z,-2.17
2019-01-27T00:23:49.722Z,-2.15
2019-01-27T00:26:19.171Z,-2.11
2019-01-27T00:28:48.656Z,-2.08
2019-01-27T00:31:18.159Z,-2.04
2019-01-27T00:33:47.652Z,-1.97
2019-01-27T00:36:17.160Z,-1.91
2019-01-27T00:38:46.656Z,-1.91
2019-01-27T00:41:16.169Z,-1.91
2019-01-27T00:43:45.648Z,-1.84
2019-01-27T00:46:15.151Z,-1.79
2019-01-27T00:48:44.636Z,-1.74
2019-01-27T00:51:14.117Z,-1.69
2019-01-27T00:53:43.590Z,-1.70
2019-01-27T00:56:13.095Z,-1.63
2019-01-27T00:58:42.576Z,-1.71
2019-01-27T01:01:12.537Z,-1.66
2019-01-27T01:03:42.001Z,-1.63
2019-01-27T01:06:11.707Z,-1.66
2019-01-27T01:08:42.419Z,-1.63
2019-01-27T01:11:11.943Z,-1.70
2019-01-27T01:13:41.409Z,-1.68
2019-01-27T01:16:11.337Z,-1.63
2019-01-27T01:18:40.843Z,-1.62
2019-01-27T01:21:10.348Z,-1.66
2019-01-27T01:23:39.931Z,-1.82
2019-01-27T01:26:09.444Z,-1.78
2019-01-27T01:28:38.935Z,-1.75
2019-01-27T01:31:08.540Z,-1.74
2019-01-27T01:33:38.045Z,-1.69
2019-01-27T01:36:09.261Z,-1.69
2019-01-27T01:38:38.748Z,-1.70
2019-01-27T01:41:08.263Z,-1.74
2019-01-27T01:43:37.754Z,-1.70
2019-01-27T01:46:07.237Z,-1.75
2019-01-27T01:48:36.734Z,-1.76
2019-01-27T01:51:06.369Z,-1.76
2019-01-27T01:53:35.836Z,-1.81
2019-01-27T01:56:05.925Z,-1.86
2019-01-27T01:58:35.524Z,-1.90
2019-01-27T02:01:05.217Z,-1.84
2019-01-27T02:03:34.747Z,-1.86
2019-01-27T02:06:04.449Z,-1.89
2019-01-27T02:08:34.030Z,-1.87
2019-01-27T02:11:03.538Z,-1.93
2019-01-27T02:13:33.065Z,-2.03
2019-01-27T02:16:05.367Z,-2.05
2019-01-27T02:18:35.230Z,-2.05
2019-01-27T02:21:05.411Z,-2.05
2019-01-27T02:23:35.082Z,-2.08
2019-01-27T02:26:05.741Z,-2.05
2019-01-27T02:28:35.237Z,-2.05
2019-01-27T02:31:05.273Z,-2.11
2019-01-27T02:33:35.002Z,-2.16
2019-01-27T02:36:04.598Z,-2.24
2019-01-27T02:38:34.100Z,-2.23
2019-01-27T02:41:03.612Z,-2.23
2019-01-27T02:43:33.132Z,-2.24
2019-01-27T02:46:02.623Z,-2.24
2019-01-27T02:48:32.145Z,-2.27
2019-01-27T02:51:01.656Z,-2.26
2019-01-27T02:53:31.164Z,-2.23
2019-01-27T02:56:04.236Z,-2.23
2019-01-27T02:58:33.873Z,-2.25
2019-01-27T03:01:03.696Z,-2.23
2019-01-27T03:03:33.189Z,-2.22
2019-01-27T03:06:24.904Z,-2.25
2019-01-27T03:09:02.720Z,-2.29
2019-01-27T03:11:47.589Z,-2.32
2019-01-27T03:14:18.679Z,-2.31
2019-01-27T03:16:48.874Z,-2.41
2019-01-27T03:19:18.391Z,-2.42
2019-01-27T03:21:47.903Z,-2.39
2019-01-27T03:24:17.548Z,-2.45
2019-01-27T03:26:47.074Z,-2.46
2019-01-27T03:29:16.558Z,-2.43
2019-01-27T03:31:46.094Z,-2.42
2019-01-27T03:34:15.595Z,-2.45
2019-01-27T03:36:45.080Z,-2.46
2019-01-27T03:39:14.572Z,-2.49
2019-01-27T03:41:44.074Z,-2.52
2019-01-27T03:44:13.990Z,-2.56
2019-01-27T03:46:43.543Z,-2.59
2019-01-27T03:49:13.100Z,-2.56
2019-01-27T03:51:42.664Z,-2.53
2019-01-27T03:54:12.290Z,-2.53
2019-01-27T03:56:41.901Z,-2.60
2019-01-27T03:59:11.371Z,-2.58
2019-01-27T04:01:40.844Z,-2.57
2019-01-27T04:04:10.464Z,-2.60
2019-01-27T04:06:39.985Z,-2.62
2019-01-27T04:09:11.498Z,-2.60
2019-01-27T04:11:41.111Z,-2.52
2019-01-27T04:14:10.669Z,-2.38
2019-01-27T04:16:40.163Z,-2.23
2019-01-27T04:19:09.695Z,-2.14
2019-01-27T04:21:39.213Z,-2.09
2019-01-27T04:24:08.770Z,-2.12
2019-01-27T04:26:38.268Z,-2.28
2019-01-27T04:29:08.189Z,-2.41
2019-01-27T04:31:37.693Z,-2.44
2019-01-27T04:34:07.403Z,-2.42
2019-01-27T04:36:36.869Z,-2.45
2019-01-27T04:39:10.058Z,-2.49
2019-01-27T04:41:39.504Z,-2.48
2019-01-27T04:44:09.003Z,-2.50
2019-01-27T04:46:38.511Z,-2.56
2019-01-27T04:49:08.029Z,-2.50
2019-01-27T04:51:37.528Z,-2.50
2019-01-27T04:54:07.030Z,-2.50
2019-01-27T04:56:36.529Z,-2.45
2019-01-27T04:59:06.238Z,-2.47
2019-01-27T05:01:35.779Z,-2.41
2019-01-27T05:04:16.809Z,-2.37
2019-01-27T05:06:46.317Z,-2.34
2019-01-27T05:09:15.848Z,-2.26
2019-01-27T05:11:45.366Z,-2.27
2019-01-27T05:14:14.898Z,-2.27
2019-01-27T05:16:44.435Z,-2.24
2019-01-27T05:19:13.980Z,-2.21
2019-01-27T05:21:43.524Z,-2.20
2019-01-27T05:24:13.085Z,-2.22
2019-01-27T05:26:42.628Z,-2.29
2019-01-27T05:29:12.129Z,-2.44
2019-01-27T05:31:41.625Z,-2.53
2019-01-27T05:34:11.176Z,-2.53
2019-01-27T05:36:40.682Z,-2.43
2019-01-27T05:39:10.351Z,-2.35
2019-01-27T05:41:40.064Z,-2.28
2019-01-27T05:44:09.573Z,-2.18
2019-01-27T05:46:39.045Z,-2.18
2019-01-27T05:49:08.532Z,-2.25
2019-01-27T05:51:38.010Z,-2.31
2019-01-27T05:54:07.496Z,-2.29
2019-01-27T05:56:36.987Z,-2.28
2019-01-27T05:59:06.721Z,-2.24
2019-01-27T06:01:36.398Z,-2.17
2019-01-27T06:04:06.018Z,-2.17
2019-01-27T06:06:35.644Z,-2.23
2019-01-27T06:09:08.036Z,-2.15
2019-01-27T06:11:37.598Z,-2.05
2019-01-27T06:14:07.094Z,-1.97
2019-01-27T06:16:36.669Z,-1.95
2019-01-27T06:19:06.287Z,-1.95
2019-01-27T06:21:35.924Z,-1.86
2019-01-27T06:24:05.415Z,-1.79
2019-01-27T06:26:34.905Z,-1.71
2019-01-27T06:29:04.654Z,-1.74
2019-01-27T06:31:34.180Z,-1.78
2019-01-27T06:34:13.293Z,-1.72
2019-01-27T06:36:42.778Z,-1.67
2019-01-27T06:39:12.286Z,-1.54
2019-01-27T06:41:41.841Z,-1.46
2019-01-27T06:44:11.354Z,-1.37
2019-01-27T06:46:40.862Z,-1.26
2019-01-27T06:49:10.351Z,-1.29
2019-01-27T06:51:39.867Z,-1.24
2019-01-27T06:54:09.418Z,-1.20
2019-01-27T06:56:39.271Z,-1.25
2019-01-27T06:59:18.956Z,-1.27
2019-01-27T07:02:11.147Z,-1.29
2019-01-27T07:04:47.294Z,-1.29
2019-01-27T07:07:26.436Z,-1.29
2019-01-27T07:10:23.808Z,-1.24
2019-01-27T07:13:08.177Z,-1.14
2019-01-27T07:16:00.460Z,-1.26
2019-01-27T07:18:36.857Z,-1.24
2019-01-27T07:21:16.549Z,-1.35
2019-01-27T07:24:13.932Z,-1.42
2019-01-27T07:26:59.691Z,-1.35
2019-01-27T07:29:48.114Z,-1.39
2019-01-27T07:32:36.520Z,-1.48
2019-01-27T07:35:24.408Z,-1.44
2019-01-27T07:38:12.847Z,-1.35
2019-01-27T07:41:09.452Z,-1.24
2019-01-27T07:43:55.060Z,-1.31
2019-01-27T07:46:31.532Z,-1.20
2019-01-27T07:49:14.756Z,-1.13
2019-01-27T07:51:55.477Z,-1.06
2019-01-27T07:54:42.956Z,-1.05
2019-01-27T07:57:46.244Z,-0.92
2019-01-27T08:00:33.689Z,-0.73
2019-01-27T08:03:25.512Z,-0.72
2019-01-27T08:06:16.739Z,-0.68
2019-01-27T08:08:54.918Z,-0.61
2019-01-27T08:11:42.161Z,-0.40
2019-01-27T08:14:22.508Z,-0.24
2019-01-27T08:17:29.359Z,-0.04
2019-01-27T08:20:16.655Z,0.07
2019-01-27T08:23:08.204Z,-0.08
2019-01-27T08:26:05.929Z,-0.18
2019-01-27T08:28:56.402Z,-0.29
2019-01-27T08:31:44.175Z,-0.31
2019-01-27T08:34:37.424Z,-0.24
2019-01-27T08:37:32.017Z,-0.04
2019-01-27T08:40:19.429Z,0.05
2019-01-27T08:43:17.142Z,0.02
2019-01-27T08:45:57.875Z,0.04
2019-01-27T08:48:27.372Z,0.09
2019-01-27T08:50:56.853Z,0.11
2019-01-27T08:53:26.338Z,0.22
2019-01-27T08:55:55.932Z,0.15
2019-01-27T08:58:25.466Z,0.24
2019-01-27T09:01:10.065Z,0.26
2019-01-27T09:03:47.019Z,0.31
2019-01-27T09:06:41.355Z,0.43
2019-01-27T09:09:24.161Z,0.52
2019-01-27T09:12:24.985Z,0.57
2019-01-27T09:15:19.210Z,0.65
2019-01-27T09:18:10.454Z,0.72
2019-01-27T09:20:48.931Z,0.61
2019-01-27T09:23:37.435Z,0.75
2019-01-27T09:26:16.440Z,0.77
2019-01-27T09:29:03.435Z,0.69
2019-01-27T09:32:10.093Z,0.75
2019-01-27T09:35:13.947Z,0.82
2019-01-27T09:38:04.191Z,0.85
2019-01-27T09:40:51.154Z,0.82
2019-01-27T09:43:28.992Z,0.81
2019-01-27T09:46:11.579Z,0.95
2019-01-27T09:49:05.759Z,1.17
2019-01-27T09:51:57.202Z,1.34
2019-01-27T09:54:39.912Z,1.47
2019-01-27T09:57:37.418Z,1.43
2019-01-27T10:00:30.455Z,1.44
2019-01-27T10:03:24.994Z,1.46
2019-01-27T10:06:12.429Z,1.53
2019-01-27T10:08:59.891Z,1.46
2019-01-27T10:11:48.352Z,1.54
2019-01-27T10:14:35.653Z,1.54
2019-01-27T10:17:23.013Z,1.64
2019-01-27T10:20:05.375Z,1.63
2019-01-27T10:22:44.727Z,1.62
2019-01-27T10:25:36.255Z,1.61
2019-01-27T10:28:30.785Z,1.67
2019-01-27T10:31:22.293Z,1.77
2019-01-27T10:34:12.478Z,1.76
2019-01-27T10:36:51.626Z,1.76
2019-01-27T10:39:38.878Z,1.90
2019-01-27T10:42:30.238Z,1.96
2019-01-27T10:45:24.509Z,1.94
2019-01-27T10:48:11.720Z,1.98
2019-01-27T10:51:06.069Z,2.03
2019-01-27T10:54:03.696Z,2.18
2019-01-27T10:57:06.838Z,2.17
2019-01-27T10:59:58.034Z,2.28
2019-01-27T11:02:37.054Z,2.39
2019-01-27T11:05:26.312Z,2.43
2019-01-27T11:08:20.965Z,2.47
2019-01-27T11:11:12.099Z,2.49
2019-01-27T11:14:06.354Z,2.58
2019-01-27T11:16:53.701Z,2.63
2019-01-27T11:19:45.201Z,2.74
2019-01-27T11:22:27.051Z,2.89
2019-01-27T11:25:13.559Z,2.89
2019-01-27T11:28:01.047Z,2.96
2019-01-27T11:30:39.416Z,3.08
2019-01-27T11:33:20.746Z,3.03
2019-01-27T11:36:07.980Z,3.03
2019-01-27T11:38:55.451Z,3.13
2019-01-27T11:41:47.029Z,3.21
2019-01-27T11:44:35.560Z,3.22
2019-01-27T11:47:23.992Z,3.36
2019-01-27T11:50:18.332Z,3.46
2019-01-27T11:52:52.350Z,3.52
2019-01-27T11:55:22.154Z,3.65
2019-01-27T11:57:52.769Z,3.67
2019-01-27T12:00:27.900Z,3.71
2019-01-27T12:02:57.448Z,3.64
2019-01-27T12:05:27.046Z,3.68
2019-01-27T12:07:56.594Z,3.79
2019-01-27T12:10:26.080Z,3.78
2019-01-27T12:12:55.595Z,3.73
2019-01-27T12:15:25.370Z,3.72
2019-01-27T12:17:54.895Z,3.88
2019-01-27T12:20:24.662Z,3.94
2019-01-27T12:22:54.153Z,3.89
2019-01-27T12:25:23.678Z,3.91
2019-01-27T12:27:53.249Z,3.94
2019-01-27T12:30:23.201Z,4.02
2019-01-27T12:32:52.705Z,3.97
2019-01-27T12:35:22.191Z,4.00
2019-01-27T12:37:51.695Z,4.04
2019-01-27T12:40:22.804Z,4.03
2019-01-27T12:42:52.292Z,4.01
2019-01-27T12:45:21.866Z,4.03
2019-01-27T12:47:51.309Z,4.09
2019-01-27T12:50:20.938Z,4.17
2019-01-27T12:52:51.530Z,4.06
2019-01-27T12:55:20.983Z,4.02
2019-01-27T12:57:51.730Z,4.04
2019-01-27T13:00:27.923Z,4.06
2019-01-27T13:02:57.429Z,4.07
2019-01-27T13:05:27.061Z,4.08
2019-01-27T13:07:56.522Z,4.09
2019-01-27T13:10:26.043Z,4.16
2019-01-27T13:12:55.575Z,4.22
2019-01-27T13:15:25.085Z,4.36
2019-01-27T13:17:54.602Z,4.42
2019-01-27T13:20:24.098Z,4.43
2019-01-27T13:22:53.653Z,4.41
2019-01-27T13:25:24.241Z,4.44
2019-01-27T13:27:53.779Z,4.44
2019-01-27T13:30:24.199Z,4.42
2019-01-27T13:32:54.097Z,4.42
2019-01-27T13:35:23.811Z,4.46
2019-01-27T13:37:53.381Z,4.42
2019-01-27T13:40:23.206Z,4.49
2019-01-27T13:42:52.844Z,4.45
2019-01-27T13:45:24.883Z,4.42
2019-01-27T13:47:58.813Z,4.43
2019-01-27T13:50:26.117Z,4.49
2019-01-27T13:52:56.005Z,4.55
2019-01-27T13:55:28.038Z,4.59
2019-01-27T13:57:57.753Z,4.57
2019-01-27T14:00:29.517Z,4.60
2019-01-27T14:02:59.036Z,4.52
2019-01-27T14:05:29.366Z,4.51
2019-01-27T14:07:58.992Z,4.41
2019-01-27T14:10:29.118Z,4.39
2019-01-27T14:12:58.659Z,4.40
2019-01-27T14:15:30.259Z,4.47
2019-01-27T14:17:59.939Z,4.52
2019-01-27T14:20:29.727Z,4.44
2019-01-27T14:22:59.185Z,4.36
2019-01-27T14:25:29.711Z,4.46
2019-01-27T14:27:59.355Z,4.43
2019-01-27T14:30:34.585Z,4.37
2019-01-27T14:33:04.329Z,4.34
2019-01-27T14:35:34.086Z,4.35
2019-01-27T14:38:03.633Z,4.39
2019-01-27T14:40:33.178Z,4.31
2019-01-27T14:43:02.721Z,4.34
2019-01-27T14:45:32.350Z,4.33
2019-01-27T14:48:02.226Z,4.34
2019-01-27T14:50:34.109Z,4.30
2019-01-27T14:53:04.508Z,4.31
2019-01-27T14:55:34.120Z,4.32
2019-01-27T14:58:03.744Z,4.27
2019-01-27T15:00:36.588Z,4.21
2019-01-27T15:03:07.724Z,4.21
2019-01-27T15:05:37.653Z,4.21
2019-01-27T15:08:08.298Z,4.12
2019-01-27T15:10:38.737Z,4.02
2019-01-27T15:13:09.660Z,3.88
2019-01-27T15:15:41.465Z,3.83
2019-01-27T15:18:11.048Z,3.80
2019-01-27T15:20:49.890Z,3.73
2019-01-27T15:23:19.448Z,3.64
2019-01-27T15:25:48.971Z,3.59
2019-01-27T15:28:18.569Z,3.34
2019-01-27T15:30:48.177Z,3.26
2019-01-27T15:33:17.904Z,3.23
2019-01-27T15:35:47.430Z,3.18
2019-01-27T15:38:17.146Z,3.13
2019-01-27T15:40:46.740Z,3.15
2019-01-27T15:43:16.316Z,3.12
2019-01-27T15:45:45.878Z,3.09
2019-01-27T15:48:15.469Z,3.05
2019-01-27T15:50:45.093Z,3.04
2019-01-27T15:53:14.656Z,3.05
2019-01-27T15:55:44.159Z,2.99
2019-01-27T15:58:13.739Z,2.99
2019-01-27T16:00:43.305Z,2.94
2019-01-27T16:03:12.830Z,2.86
2019-01-27T16:05:42.357Z,2.85
2019-01-27T16:08:11.881Z,2.79
2019-01-27T16:10:41.443Z,2.69
2019-01-27T16:13:10.950Z,2.65
2019-01-27T16:15:40.479Z,2.61
2019-01-27T16:18:10.092Z,2.57
2019-01-27T16:20:39.601Z,2.54
2019-01-27T16:23:16.875Z,2.50
2019-01-27T16:25:46.485Z,2.48
2019-01-27T16:28:16.119Z,2.46
2019-01-27T16:30:56.118Z,2.46
2019-01-27T16:33:34.921Z,2.44
2019-01-27T16:36:04.579Z,2.38
2019-01-27T16:38:34.265Z,2.31
2019-01-27T16:41:03.898Z,2.28
2019-01-27T16:43:33.412Z,2.24
2019-01-27T16:46:02.906Z,2.15
2019-01-27T16:48:32.465Z,2.04
2019-01-27T16:51:03.943Z,1.98
2019-01-27T16:53:33.403Z,1.94
2019-01-27T16:56:03.231Z,1.92
2019-01-27T16:58:32.718Z,1.90
2019-01-27T17:01:02.335Z,1.87
2019-01-27T17:03:33.368Z,1.81
2019-01-27T17:06:02.928Z,1.71
2019-01-27T17:08:32.400Z,1.68
2019-01-27T17:11:01.935Z,1.64
2019-01-27T17:13:31.593Z,1.57
2019-01-27T17:16:01.749Z,1.57
2019-01-27T17:18:31.229Z,1.53
2019-01-27T17:21:00.840Z,1.55
2019-01-27T17:23:30.359Z,1.55
2019-01-27T17:25:59.925Z,1.55
2019-01-27T17:28:29.899Z,1.55
2019-01-27T17:30:59.745Z,1.53
2019-01-27T17:33:29.315Z,1.52
2019-01-27T17:36:00.043Z,1.57
2019-01-27T17:38:29.655Z,1.54
2019-01-27T17:40:59.475Z,1.54
2019-01-27T17:43:29.190Z,1.55
2019-01-27T17:45:58.742Z,1.58
2019-01-27T17:48:28.313Z,1.60
2019-01-27T17:50:59.898Z,1.59
2019-01-27T17:53:31.531Z,1.61
2019-01-27T17:56:01.056Z,1.62
2019-01-27T17:58:54.152Z,1.62
2019-01-27T18:01:40.649Z,1.60
2019-01-27T18:04:29.906Z,1.57
2019-01-27T18:07:16.933Z,1.51
2019-01-27T18:10:04.211Z,1.55
2019-01-27T18:12:41.272Z,1.51
2019-01-27T18:15:11.027Z,1.49
2019-01-27T18:17:40.675Z,1.47
2019-01-27T18:20:13.254Z,1.47
2019-01-27T18:22:43.241Z,1.44
2019-01-27T18:25:13.635Z,1.40
2019-01-27T18:27:43.204Z,1.41
2019-01-27T18:30:17.100Z,1.42
2019-01-27T18:32:46.638Z,1.39
2019-01-27T18:35:16.281Z,1.22
2019-01-27T18:37:46.307Z,1.05
2019-01-27T18:40:16.533Z,1.10
2019-01-27T18:42:46.245Z,0.95
2019-01-27T18:45:20.660Z,0.97
2019-01-27T18:47:50.262Z,0.94
2019-01-27T18:50:23.091Z,0.85
2019-01-27T18:53:01.850Z,0.86
2019-01-27T18:55:42.715Z,0.92
2019-01-27T18:58:47.055Z,0.93
2019-01-27T19:01:35.947Z,0.99
2019-01-27T19:04:27.969Z,1.02
2019-01-27T19:07:15.294Z,1.05
2019-01-27T19:09:52.176Z,1.09
2019-01-27T19:12:46.701Z,1.08
2019-01-27T19:15:50.924Z,1.12
2019-01-27T19:18:48.415Z,1.09
2019-01-27T19:21:46.114Z,1.09
2019-01-27T19:24:35.433Z,1.05
2019-01-27T19:27:21.628Z,1.02
2019-01-27T19:30:17.109Z,0.99
2019-01-27T19:33:06.146Z,0.99
2019-01-27T19:36:05.369Z,0.91
2019-01-27T19:39:06.128Z,0.92
2019-01-27T19:41:49.202Z,0.92
2019-01-27T19:44:36.999Z,0.91
2019-01-27T19:47:25.479Z,0.94
2019-01-27T19:50:17.806Z,0.96
2019-01-27T19:53:02.798Z,0.95
2019-01-27T19:55:54.228Z,0.92
2019-01-27T19:58:45.467Z,0.91
2019-01-27T20:01:21.350Z,0.90
2019-01-27T20:04:09.782Z,0.88
2019-01-27T20:07:05.511Z,0.93
2019-01-27T20:09:52.762Z,0.92
2019-01-27T20:12:38.419Z,0.97
2019-01-27T20:15:22.372Z,0.93
2019-01-27T20:18:16.953Z,0.99
2019-01-27T20:21:04.455Z,0.98
2019-01-27T20:24:10.268Z,0.96
2019-01-27T20:27:01.804Z,0.99
2019-01-27T20:29:49.317Z,0.97
2019-01-27T20:32:37.063Z,0.99
2019-01-27T20:35:26.058Z,0.98
2019-01-27T20:38:26.449Z,0.93
2019-01-27T20:41:21.128Z,0.95
2019-01-27T20:44:08.417Z,0.96
2019-01-27T20:46:55.813Z,0.95
2019-01-27T20:49:34.172Z,0.92
2019-01-27T20:52:25.674Z,0.94
2019-01-27T20:55:29.384Z,0.90
2019-01-27T20:58:17.842Z,0.92
2019-01-27T21:01:02.662Z,0.79
2019-01-27T21:03:56.967Z,0.68
2019-01-27T21:06:48.439Z,0.61
2019-01-27T21:09:36.905Z,0.63
2019-01-27T21:12:34.343Z,0.52
2019-01-27T21:15:26.860Z,0.54
2019-01-27T21:18:14.105Z,0.50
2019-01-27T21:20:43.646Z,0.56
2019-01-27T21:23:13.199Z,0.54
2019-01-27T21:25:43.053Z,0.56
2019-01-27T21:28:12.577Z,0.55
2019-01-27T21:30:42.114Z,0.59
2019-01-27T21:33:11.644Z,0.50
2019-01-27T21:35:41.159Z,0.41
2019-01-27T21:38:10.682Z,0.47
2019-01-27T21:40:40.182Z,0.46
2019-01-27T21:43:09.744Z,0.47
2019-01-27T21:45:39.279Z,0.46
2019-01-27T21:48:09.018Z,0.35
2019-01-27T21:50:38.789Z,0.35
2019-01-27T21:53:12.160Z,0.34
2019-01-27T21:55:41.642Z,0.37
2019-01-27T21:58:11.584Z,0.40
2019-01-27T22:00:41.420Z,0.41
2019-01-27T22:03:11.123Z,0.41
2019-01-27T22:05:42.138Z,0.37
2019-01-27T22:08:11.701Z,0.40
2019-01-27T22:10:41.252Z,0.31
2019-01-27T22:13:10.754Z,0.25
2019-01-27T22:15:40.613Z,0.19
2019-01-27T22:18:10.149Z,0.17
2019-01-27T22:20:40.934Z,0.23
2019-01-27T22:23:10.710Z,0.21
2019-01-27T22:25:40.243Z,0.22
2019-01-27T22:28:09.772Z,0.26
2019-01-27T22:30:39.280Z,0.19
2019-01-27T22:33:08.861Z,0.11
2019-01-27T22:35:38.380Z,0.11
2019-01-27T22:38:07.948Z,0.10
2019-01-27T22:40:37.772Z,0.03
2019-01-27T22:43:07.267Z,-0.01
2019-01-27T22:45:36.784Z,0.01
2019-01-27T22:48:06.418Z,0.05
2019-01-27T22:50:36.001Z,0.08
2019-01-27T22:53:08.940Z,0.06
2019-01-27T22:55:38.481Z,0.11
2019-01-27T22:58:08.044Z,0.11
2019-01-27T23:00:56.211Z,0.15
2019-01-27T23:03:26.046Z,0.10
2019-01-27T23:05:55.707Z,0.14
2019-01-27T23:08:25.210Z,0.11
2019-01-27T23:10:54.743Z,0.06
2019-01-27T23:13:24.274Z,0.07
2019-01-27T23:15:53.749Z,0.16
2019-01-27T23:18:23.273Z,0.20
2019-01-27T23:20:52.800Z,0.17
2019-01-27T23:23:22.335Z,0.25
2019-01-27T23:25:51.851Z,0.28
2019-01-27T23:28:21.349Z,0.26
2019-01-27T23:30:50.896Z,0.34
2019-01-27T23:33:20.427Z,0.34
2019-01-27T23:35:52.736Z,0.23
2019-01-27T23:38:22.200Z,0.08
2019-01-27T23:40:51.718Z,0.10
2019-01-27T23:43:21.221Z,0.17
2019-01-27T23:45:50.817Z,0.16
2019-01-27T23:48:22.098Z,0.24
2019-01-27T23:50:53.292Z,0.24
2019-01-27T23:53:23.136Z,0.31
2019-01-27T23:55:52.657Z,0.30
2019-01-27T23:58:22.235Z,0.30
